<?xml version="1.0" encoding="UTF-8" standalone="no" ?>
<gpx xmlns="http://www.topografix.com/GPX/1/1" xmlns:xsi="http://www.w3.org/2001/XMLSchema-instance" xsi:schemaLocation="http://www.topografix.com/GPX/1/1 http://www.topografix.com/GPX/1/1/gpx.xsd" version="1.1" creator="VisuGPX - https://www.visugpx.com">
  <metadata>
    <name>20200628 - Grande sortie dans la forêt </name>
    <desc><![CDATA[Beaucoup de vent aujourd'hui !!!]]></desc>
  </metadata>
  <trk>
    <name><![CDATA[2020-06-28 14:54:43]]></name>
    <trkseg>
      <trkpt lat="50.12479" lon="3.67809">
        <ele>133.76</ele>
        <time>2020-06-28T12:05:53Z</time>
      </trkpt>
      <trkpt lat="50.12479" lon="3.67808">
        <ele>133.76</ele>
        <time>2020-06-28T12:06:11Z</time>
      </trkpt>
      <trkpt lat="50.12503" lon="3.67836">
        <ele>133.28</ele>
        <time>2020-06-28T12:06:25Z</time>
      </trkpt>
      <trkpt lat="50.12542" lon="3.67878">
        <ele>133.28</ele>
        <time>2020-06-28T12:06:41Z</time>
      </trkpt>
      <trkpt lat="50.1256" lon="3.67889">
        <ele>133.28</ele>
        <time>2020-06-28T12:06:46Z</time>
      </trkpt>
      <trkpt lat="50.12564" lon="3.67892">
        <ele>133.28</ele>
        <time>2020-06-28T12:06:47Z</time>
      </trkpt>
      <trkpt lat="50.12589" lon="3.67925">
        <ele>133.28</ele>
        <time>2020-06-28T12:06:54Z</time>
      </trkpt>
      <trkpt lat="50.1262" lon="3.67986">
        <ele>134.72</ele>
        <time>2020-06-28T12:07:04Z</time>
      </trkpt>
      <trkpt lat="50.1268" lon="3.68116">
        <ele>133.76</ele>
        <time>2020-06-28T12:07:23Z</time>
      </trkpt>
      <trkpt lat="50.12703" lon="3.68165">
        <ele>133.76</ele>
        <time>2020-06-28T12:07:31Z</time>
      </trkpt>
      <trkpt lat="50.1272" lon="3.68198">
        <ele>133.76</ele>
        <time>2020-06-28T12:07:37Z</time>
      </trkpt>
      <trkpt lat="50.12724" lon="3.6821">
        <ele>135.2</ele>
        <time>2020-06-28T12:07:39Z</time>
      </trkpt>
      <trkpt lat="50.1275" lon="3.68287">
        <ele>134.72</ele>
        <time>2020-06-28T12:07:51Z</time>
      </trkpt>
      <trkpt lat="50.12754" lon="3.68301">
        <ele>134.72</ele>
        <time>2020-06-28T12:07:53Z</time>
      </trkpt>
      <trkpt lat="50.12762" lon="3.68327">
        <ele>134.72</ele>
        <time>2020-06-28T12:07:57Z</time>
      </trkpt>
      <trkpt lat="50.12764" lon="3.68333">
        <ele>134.72</ele>
        <time>2020-06-28T12:07:58Z</time>
      </trkpt>
      <trkpt lat="50.12793" lon="3.6842">
        <ele>135.68</ele>
        <time>2020-06-28T12:08:13Z</time>
      </trkpt>
      <trkpt lat="50.12798" lon="3.68439">
        <ele>136.16</ele>
        <time>2020-06-28T12:08:17Z</time>
      </trkpt>
      <trkpt lat="50.12796" lon="3.68445">
        <ele>136.16</ele>
        <time>2020-06-28T12:08:18Z</time>
      </trkpt>
      <trkpt lat="50.12793" lon="3.6845">
        <ele>136.16</ele>
        <time>2020-06-28T12:08:19Z</time>
      </trkpt>
      <trkpt lat="50.12789" lon="3.68453">
        <ele>136.16</ele>
        <time>2020-06-28T12:08:20Z</time>
      </trkpt>
      <trkpt lat="50.12784" lon="3.68457">
        <ele>136.16</ele>
        <time>2020-06-28T12:08:21Z</time>
      </trkpt>
      <trkpt lat="50.12766" lon="3.68473">
        <ele>134.72</ele>
        <time>2020-06-28T12:08:25Z</time>
      </trkpt>
      <trkpt lat="50.12743" lon="3.6849">
        <ele>134.24</ele>
        <time>2020-06-28T12:08:30Z</time>
      </trkpt>
      <trkpt lat="50.12735" lon="3.68496">
        <ele>133.76</ele>
        <time>2020-06-28T12:08:32Z</time>
      </trkpt>
      <trkpt lat="50.12732" lon="3.68501">
        <ele>133.76</ele>
        <time>2020-06-28T12:08:33Z</time>
      </trkpt>
      <trkpt lat="50.12731" lon="3.68509">
        <ele>133.76</ele>
        <time>2020-06-28T12:08:34Z</time>
      </trkpt>
      <trkpt lat="50.12732" lon="3.68516">
        <ele>133.76</ele>
        <time>2020-06-28T12:08:35Z</time>
      </trkpt>
      <trkpt lat="50.12735" lon="3.68522">
        <ele>133.76</ele>
        <time>2020-06-28T12:08:36Z</time>
      </trkpt>
      <trkpt lat="50.12738" lon="3.68528">
        <ele>133.76</ele>
        <time>2020-06-28T12:08:37Z</time>
      </trkpt>
      <trkpt lat="50.12742" lon="3.68534">
        <ele>133.76</ele>
        <time>2020-06-28T12:08:38Z</time>
      </trkpt>
      <trkpt lat="50.12745" lon="3.68541">
        <ele>133.76</ele>
        <time>2020-06-28T12:08:39Z</time>
      </trkpt>
      <trkpt lat="50.12749" lon="3.68547">
        <ele>133.76</ele>
        <time>2020-06-28T12:08:40Z</time>
      </trkpt>
      <trkpt lat="50.12751" lon="3.68554">
        <ele>133.76</ele>
        <time>2020-06-28T12:08:41Z</time>
      </trkpt>
      <trkpt lat="50.12751" lon="3.68562">
        <ele>133.76</ele>
        <time>2020-06-28T12:08:42Z</time>
      </trkpt>
      <trkpt lat="50.1275" lon="3.68569">
        <ele>133.76</ele>
        <time>2020-06-28T12:08:43Z</time>
      </trkpt>
      <trkpt lat="50.12747" lon="3.68575">
        <ele>133.76</ele>
        <time>2020-06-28T12:08:44Z</time>
      </trkpt>
      <trkpt lat="50.12743" lon="3.68582">
        <ele>133.76</ele>
        <time>2020-06-28T12:08:45Z</time>
      </trkpt>
      <trkpt lat="50.12727" lon="3.68607">
        <ele>133.28</ele>
        <time>2020-06-28T12:08:49Z</time>
      </trkpt>
      <trkpt lat="50.12705" lon="3.6865">
        <ele>133.28</ele>
        <time>2020-06-28T12:08:55Z</time>
      </trkpt>
      <trkpt lat="50.12704" lon="3.68663">
        <ele>133.28</ele>
        <time>2020-06-28T12:08:57Z</time>
      </trkpt>
      <trkpt lat="50.12707" lon="3.68668">
        <ele>133.28</ele>
        <time>2020-06-28T12:08:58Z</time>
      </trkpt>
      <trkpt lat="50.12725" lon="3.68694">
        <ele>134.72</ele>
        <time>2020-06-28T12:09:03Z</time>
      </trkpt>
      <trkpt lat="50.12729" lon="3.68698">
        <ele>134.72</ele>
        <time>2020-06-28T12:09:04Z</time>
      </trkpt>
      <trkpt lat="50.12734" lon="3.68699">
        <ele>134.72</ele>
        <time>2020-06-28T12:09:05Z</time>
      </trkpt>
      <trkpt lat="50.12739" lon="3.68698">
        <ele>134.72</ele>
        <time>2020-06-28T12:09:06Z</time>
      </trkpt>
      <trkpt lat="50.12744" lon="3.68695">
        <ele>134.72</ele>
        <time>2020-06-28T12:09:07Z</time>
      </trkpt>
      <trkpt lat="50.12749" lon="3.6869">
        <ele>134.72</ele>
        <time>2020-06-28T12:09:08Z</time>
      </trkpt>
      <trkpt lat="50.12753" lon="3.68684">
        <ele>134.72</ele>
        <time>2020-06-28T12:09:09Z</time>
      </trkpt>
      <trkpt lat="50.12758" lon="3.68679">
        <ele>134.72</ele>
        <time>2020-06-28T12:09:10Z</time>
      </trkpt>
      <trkpt lat="50.12792" lon="3.68632">
        <ele>134.72</ele>
        <time>2020-06-28T12:09:18Z</time>
      </trkpt>
      <trkpt lat="50.12795" lon="3.68625">
        <ele>134.72</ele>
        <time>2020-06-28T12:09:19Z</time>
      </trkpt>
      <trkpt lat="50.12798" lon="3.68618">
        <ele>134.72</ele>
        <time>2020-06-28T12:09:20Z</time>
      </trkpt>
      <trkpt lat="50.12801" lon="3.68611">
        <ele>135.2</ele>
        <time>2020-06-28T12:09:21Z</time>
      </trkpt>
      <trkpt lat="50.12804" lon="3.68603">
        <ele>135.2</ele>
        <time>2020-06-28T12:09:22Z</time>
      </trkpt>
      <trkpt lat="50.12806" lon="3.68598">
        <ele>135.2</ele>
        <time>2020-06-28T12:09:23Z</time>
      </trkpt>
      <trkpt lat="50.12828" lon="3.68513">
        <ele>138.09</ele>
        <time>2020-06-28T12:09:36Z</time>
      </trkpt>
      <trkpt lat="50.12842" lon="3.68444">
        <ele>140.97</ele>
        <time>2020-06-28T12:09:49Z</time>
      </trkpt>
      <trkpt lat="50.12859" lon="3.68398">
        <ele>142.89</ele>
        <time>2020-06-28T12:10:00Z</time>
      </trkpt>
      <trkpt lat="50.12883" lon="3.6836">
        <ele>144.82</ele>
        <time>2020-06-28T12:10:13Z</time>
      </trkpt>
      <trkpt lat="50.12934" lon="3.68322">
        <ele>144.34</ele>
        <time>2020-06-28T12:10:27Z</time>
      </trkpt>
      <trkpt lat="50.12959" lon="3.68313">
        <ele>141.45</ele>
        <time>2020-06-28T12:10:32Z</time>
      </trkpt>
      <trkpt lat="50.12966" lon="3.68312">
        <ele>141.45</ele>
        <time>2020-06-28T12:10:33Z</time>
      </trkpt>
      <trkpt lat="50.12971" lon="3.68311">
        <ele>141.45</ele>
        <time>2020-06-28T12:10:34Z</time>
      </trkpt>
      <trkpt lat="50.12976" lon="3.68309">
        <ele>141.45</ele>
        <time>2020-06-28T12:10:35Z</time>
      </trkpt>
      <trkpt lat="50.12981" lon="3.68301">
        <ele>141.45</ele>
        <time>2020-06-28T12:10:36Z</time>
      </trkpt>
      <trkpt lat="50.12981" lon="3.68293">
        <ele>141.45</ele>
        <time>2020-06-28T12:10:37Z</time>
      </trkpt>
      <trkpt lat="50.12979" lon="3.68287">
        <ele>141.45</ele>
        <time>2020-06-28T12:10:38Z</time>
      </trkpt>
      <trkpt lat="50.12977" lon="3.68283">
        <ele>141.45</ele>
        <time>2020-06-28T12:10:39Z</time>
      </trkpt>
      <trkpt lat="50.12972" lon="3.68279">
        <ele>141.45</ele>
        <time>2020-06-28T12:10:40Z</time>
      </trkpt>
      <trkpt lat="50.12968" lon="3.68274">
        <ele>141.45</ele>
        <time>2020-06-28T12:10:41Z</time>
      </trkpt>
      <trkpt lat="50.12963" lon="3.68268">
        <ele>141.45</ele>
        <time>2020-06-28T12:10:42Z</time>
      </trkpt>
      <trkpt lat="50.12961" lon="3.68263">
        <ele>141.45</ele>
        <time>2020-06-28T12:10:43Z</time>
      </trkpt>
      <trkpt lat="50.12958" lon="3.68256">
        <ele>141.45</ele>
        <time>2020-06-28T12:10:44Z</time>
      </trkpt>
      <trkpt lat="50.12956" lon="3.68248">
        <ele>141.45</ele>
        <time>2020-06-28T12:10:45Z</time>
      </trkpt>
      <trkpt lat="50.12932" lon="3.68178">
        <ele>140.97</ele>
        <time>2020-06-28T12:10:54Z</time>
      </trkpt>
      <trkpt lat="50.12929" lon="3.6817">
        <ele>140.97</ele>
        <time>2020-06-28T12:10:55Z</time>
      </trkpt>
      <trkpt lat="50.1292" lon="3.68147">
        <ele>140.97</ele>
        <time>2020-06-28T12:10:58Z</time>
      </trkpt>
      <trkpt lat="50.12917" lon="3.6814">
        <ele>140.97</ele>
        <time>2020-06-28T12:10:59Z</time>
      </trkpt>
      <trkpt lat="50.12915" lon="3.68133">
        <ele>140.97</ele>
        <time>2020-06-28T12:11:00Z</time>
      </trkpt>
      <trkpt lat="50.12907" lon="3.68095">
        <ele>140.97</ele>
        <time>2020-06-28T12:11:05Z</time>
      </trkpt>
      <trkpt lat="50.12906" lon="3.68089">
        <ele>140.97</ele>
        <time>2020-06-28T12:11:06Z</time>
      </trkpt>
      <trkpt lat="50.12889" lon="3.67975">
        <ele>140.01</ele>
        <time>2020-06-28T12:11:21Z</time>
      </trkpt>
      <trkpt lat="50.12874" lon="3.67918">
        <ele>140.97</ele>
        <time>2020-06-28T12:11:29Z</time>
      </trkpt>
      <trkpt lat="50.12864" lon="3.67859">
        <ele>142.41</ele>
        <time>2020-06-28T12:11:38Z</time>
      </trkpt>
      <trkpt lat="50.12855" lon="3.67757">
        <ele>144.34</ele>
        <time>2020-06-28T12:11:53Z</time>
      </trkpt>
      <trkpt lat="50.12828" lon="3.67648">
        <ele>143.85</ele>
        <time>2020-06-28T12:12:10Z</time>
      </trkpt>
      <trkpt lat="50.12826" lon="3.67641">
        <ele>143.85</ele>
        <time>2020-06-28T12:12:11Z</time>
      </trkpt>
      <trkpt lat="50.12818" lon="3.67611">
        <ele>143.37</ele>
        <time>2020-06-28T12:12:15Z</time>
      </trkpt>
      <trkpt lat="50.12781" lon="3.67471">
        <ele>142.41</ele>
        <time>2020-06-28T12:12:34Z</time>
      </trkpt>
      <trkpt lat="50.12766" lon="3.67409">
        <ele>143.85</ele>
        <time>2020-06-28T12:12:43Z</time>
      </trkpt>
      <trkpt lat="50.12745" lon="3.67317">
        <ele>145.78</ele>
        <time>2020-06-28T12:12:58Z</time>
      </trkpt>
      <trkpt lat="50.12736" lon="3.67234">
        <ele>148.66</ele>
        <time>2020-06-28T12:13:12Z</time>
      </trkpt>
      <trkpt lat="50.12724" lon="3.6717">
        <ele>148.66</ele>
        <time>2020-06-28T12:13:23Z</time>
      </trkpt>
      <trkpt lat="50.12722" lon="3.67164">
        <ele>148.66</ele>
        <time>2020-06-28T12:13:24Z</time>
      </trkpt>
      <trkpt lat="50.1272" lon="3.67158">
        <ele>148.66</ele>
        <time>2020-06-28T12:13:25Z</time>
      </trkpt>
      <trkpt lat="50.12702" lon="3.67125">
        <ele>148.66</ele>
        <time>2020-06-28T12:13:31Z</time>
      </trkpt>
      <trkpt lat="50.12688" lon="3.67113">
        <ele>147.22</ele>
        <time>2020-06-28T12:13:34Z</time>
      </trkpt>
      <trkpt lat="50.12683" lon="3.67111">
        <ele>146.74</ele>
        <time>2020-06-28T12:13:35Z</time>
      </trkpt>
      <trkpt lat="50.12672" lon="3.67107">
        <ele>146.74</ele>
        <time>2020-06-28T12:13:37Z</time>
      </trkpt>
      <trkpt lat="50.12666" lon="3.67106">
        <ele>145.78</ele>
        <time>2020-06-28T12:13:38Z</time>
      </trkpt>
      <trkpt lat="50.12568" lon="3.67108">
        <ele>144.34</ele>
        <time>2020-06-28T12:13:53Z</time>
      </trkpt>
      <trkpt lat="50.12561" lon="3.67108">
        <ele>144.34</ele>
        <time>2020-06-28T12:13:54Z</time>
      </trkpt>
      <trkpt lat="50.12541" lon="3.67105">
        <ele>143.85</ele>
        <time>2020-06-28T12:13:57Z</time>
      </trkpt>
      <trkpt lat="50.12522" lon="3.67094">
        <ele>143.85</ele>
        <time>2020-06-28T12:14:00Z</time>
      </trkpt>
      <trkpt lat="50.12444" lon="3.67004">
        <ele>142.41</ele>
        <time>2020-06-28T12:14:15Z</time>
      </trkpt>
      <trkpt lat="50.12395" lon="3.66963">
        <ele>142.41</ele>
        <time>2020-06-28T12:14:25Z</time>
      </trkpt>
      <trkpt lat="50.12314" lon="3.66927">
        <ele>140.49</ele>
        <time>2020-06-28T12:14:39Z</time>
      </trkpt>
      <trkpt lat="50.12308" lon="3.66921">
        <ele>140.49</ele>
        <time>2020-06-28T12:14:40Z</time>
      </trkpt>
      <trkpt lat="50.12303" lon="3.66915">
        <ele>140.49</ele>
        <time>2020-06-28T12:14:41Z</time>
      </trkpt>
      <trkpt lat="50.12244" lon="3.66852">
        <ele>137.13</ele>
        <time>2020-06-28T12:14:52Z</time>
      </trkpt>
      <trkpt lat="50.12149" lon="3.66796">
        <ele>134.72</ele>
        <time>2020-06-28T12:15:08Z</time>
      </trkpt>
      <trkpt lat="50.12122" lon="3.66762">
        <ele>134.24</ele>
        <time>2020-06-28T12:15:14Z</time>
      </trkpt>
      <trkpt lat="50.1207" lon="3.66659">
        <ele>133.28</ele>
        <time>2020-06-28T12:15:30Z</time>
      </trkpt>
      <trkpt lat="50.12058" lon="3.66635">
        <ele>134.72</ele>
        <time>2020-06-28T12:15:34Z</time>
      </trkpt>
      <trkpt lat="50.12024" lon="3.66569">
        <ele>135.68</ele>
        <time>2020-06-28T12:15:46Z</time>
      </trkpt>
      <trkpt lat="50.12022" lon="3.66564">
        <ele>135.68</ele>
        <time>2020-06-28T12:15:47Z</time>
      </trkpt>
      <trkpt lat="50.12016" lon="3.66553">
        <ele>135.68</ele>
        <time>2020-06-28T12:15:49Z</time>
      </trkpt>
      <trkpt lat="50.12014" lon="3.66548">
        <ele>135.68</ele>
        <time>2020-06-28T12:15:50Z</time>
      </trkpt>
      <trkpt lat="50.12011" lon="3.66542">
        <ele>135.68</ele>
        <time>2020-06-28T12:15:51Z</time>
      </trkpt>
      <trkpt lat="50.12008" lon="3.66537">
        <ele>136.16</ele>
        <time>2020-06-28T12:15:52Z</time>
      </trkpt>
      <trkpt lat="50.12006" lon="3.66532">
        <ele>136.16</ele>
        <time>2020-06-28T12:15:53Z</time>
      </trkpt>
      <trkpt lat="50.11957" lon="3.66437">
        <ele>138.57</ele>
        <time>2020-06-28T12:16:13Z</time>
      </trkpt>
      <trkpt lat="50.1194" lon="3.66406">
        <ele>138.57</ele>
        <time>2020-06-28T12:16:20Z</time>
      </trkpt>
      <trkpt lat="50.11937" lon="3.66402">
        <ele>138.57</ele>
        <time>2020-06-28T12:16:21Z</time>
      </trkpt>
      <trkpt lat="50.11896" lon="3.66327">
        <ele>140.01</ele>
        <time>2020-06-28T12:16:37Z</time>
      </trkpt>
      <trkpt lat="50.11852" lon="3.66245">
        <ele>141.45</ele>
        <time>2020-06-28T12:16:56Z</time>
      </trkpt>
      <trkpt lat="50.1183" lon="3.66195">
        <ele>141.45</ele>
        <time>2020-06-28T12:17:06Z</time>
      </trkpt>
      <trkpt lat="50.1182" lon="3.66147">
        <ele>141.45</ele>
        <time>2020-06-28T12:17:14Z</time>
      </trkpt>
      <trkpt lat="50.11805" lon="3.66058">
        <ele>141.45</ele>
        <time>2020-06-28T12:17:28Z</time>
      </trkpt>
      <trkpt lat="50.11791" lon="3.6594">
        <ele>140.01</ele>
        <time>2020-06-28T12:17:44Z</time>
      </trkpt>
      <trkpt lat="50.11795" lon="3.65874">
        <ele>140.01</ele>
        <time>2020-06-28T12:17:53Z</time>
      </trkpt>
      <trkpt lat="50.11802" lon="3.65742">
        <ele>139.53</ele>
        <time>2020-06-28T12:18:11Z</time>
      </trkpt>
      <trkpt lat="50.11823" lon="3.65637">
        <ele>139.05</ele>
        <time>2020-06-28T12:18:27Z</time>
      </trkpt>
      <trkpt lat="50.11851" lon="3.6551">
        <ele>139.05</ele>
        <time>2020-06-28T12:18:46Z</time>
      </trkpt>
      <trkpt lat="50.11894" lon="3.65394">
        <ele>138.57</ele>
        <time>2020-06-28T12:19:04Z</time>
      </trkpt>
      <trkpt lat="50.11939" lon="3.65296">
        <ele>137.61</ele>
        <time>2020-06-28T12:19:19Z</time>
      </trkpt>
      <trkpt lat="50.11966" lon="3.65183">
        <ele>135.68</ele>
        <time>2020-06-28T12:19:33Z</time>
      </trkpt>
      <trkpt lat="50.11965" lon="3.65159">
        <ele>135.68</ele>
        <time>2020-06-28T12:19:36Z</time>
      </trkpt>
      <trkpt lat="50.11957" lon="3.65114">
        <ele>135.2</ele>
        <time>2020-06-28T12:19:42Z</time>
      </trkpt>
      <trkpt lat="50.11923" lon="3.6504">
        <ele>136.16</ele>
        <time>2020-06-28T12:19:55Z</time>
      </trkpt>
      <trkpt lat="50.11878" lon="3.64997">
        <ele>136.64</ele>
        <time>2020-06-28T12:20:06Z</time>
      </trkpt>
      <trkpt lat="50.11795" lon="3.6492">
        <ele>135.68</ele>
        <time>2020-06-28T12:20:24Z</time>
      </trkpt>
      <trkpt lat="50.11748" lon="3.64873">
        <ele>135.68</ele>
        <time>2020-06-28T12:20:34Z</time>
      </trkpt>
      <trkpt lat="50.11745" lon="3.64866">
        <ele>135.68</ele>
        <time>2020-06-28T12:20:35Z</time>
      </trkpt>
      <trkpt lat="50.11739" lon="3.64852">
        <ele>135.68</ele>
        <time>2020-06-28T12:20:37Z</time>
      </trkpt>
      <trkpt lat="50.1173" lon="3.6482">
        <ele>135.2</ele>
        <time>2020-06-28T12:20:41Z</time>
      </trkpt>
      <trkpt lat="50.11721" lon="3.64704">
        <ele>138.09</ele>
        <time>2020-06-28T12:20:56Z</time>
      </trkpt>
      <trkpt lat="50.11721" lon="3.64689">
        <ele>138.57</ele>
        <time>2020-06-28T12:20:58Z</time>
      </trkpt>
      <trkpt lat="50.11718" lon="3.64657">
        <ele>139.05</ele>
        <time>2020-06-28T12:21:02Z</time>
      </trkpt>
      <trkpt lat="50.11718" lon="3.64649">
        <ele>139.53</ele>
        <time>2020-06-28T12:21:03Z</time>
      </trkpt>
      <trkpt lat="50.11717" lon="3.64642">
        <ele>139.53</ele>
        <time>2020-06-28T12:21:04Z</time>
      </trkpt>
      <trkpt lat="50.11716" lon="3.64626">
        <ele>140.49</ele>
        <time>2020-06-28T12:21:06Z</time>
      </trkpt>
      <trkpt lat="50.11715" lon="3.64618">
        <ele>140.49</ele>
        <time>2020-06-28T12:21:07Z</time>
      </trkpt>
      <trkpt lat="50.11708" lon="3.6453">
        <ele>141.93</ele>
        <time>2020-06-28T12:21:20Z</time>
      </trkpt>
      <trkpt lat="50.11699" lon="3.64404">
        <ele>142.41</ele>
        <time>2020-06-28T12:21:38Z</time>
      </trkpt>
      <trkpt lat="50.11688" lon="3.64274">
        <ele>142.41</ele>
        <time>2020-06-28T12:21:55Z</time>
      </trkpt>
      <trkpt lat="50.11678" lon="3.64148">
        <ele>142.41</ele>
        <time>2020-06-28T12:22:12Z</time>
      </trkpt>
      <trkpt lat="50.11671" lon="3.64046">
        <ele>140.97</ele>
        <time>2020-06-28T12:22:24Z</time>
      </trkpt>
      <trkpt lat="50.1166" lon="3.63903">
        <ele>140.97</ele>
        <time>2020-06-28T12:22:40Z</time>
      </trkpt>
      <trkpt lat="50.11649" lon="3.63755">
        <ele>140.01</ele>
        <time>2020-06-28T12:22:57Z</time>
      </trkpt>
      <trkpt lat="50.11637" lon="3.63591">
        <ele>139.53</ele>
        <time>2020-06-28T12:23:16Z</time>
      </trkpt>
      <trkpt lat="50.1163" lon="3.63503">
        <ele>140.49</ele>
        <time>2020-06-28T12:23:27Z</time>
      </trkpt>
      <trkpt lat="50.11629" lon="3.63496">
        <ele>140.49</ele>
        <time>2020-06-28T12:23:28Z</time>
      </trkpt>
      <trkpt lat="50.1162" lon="3.63388">
        <ele>141.93</ele>
        <time>2020-06-28T12:23:42Z</time>
      </trkpt>
      <trkpt lat="50.11619" lon="3.63379">
        <ele>141.93</ele>
        <time>2020-06-28T12:23:43Z</time>
      </trkpt>
      <trkpt lat="50.1161" lon="3.63245">
        <ele>141.93</ele>
        <time>2020-06-28T12:23:55Z</time>
      </trkpt>
      <trkpt lat="50.11605" lon="3.63185">
        <ele>143.85</ele>
        <time>2020-06-28T12:24:00Z</time>
      </trkpt>
      <trkpt lat="50.11604" lon="3.63175">
        <ele>144.34</ele>
        <time>2020-06-28T12:24:01Z</time>
      </trkpt>
      <trkpt lat="50.11604" lon="3.63164">
        <ele>144.34</ele>
        <time>2020-06-28T12:24:02Z</time>
      </trkpt>
      <trkpt lat="50.11603" lon="3.63154">
        <ele>144.82</ele>
        <time>2020-06-28T12:24:03Z</time>
      </trkpt>
      <trkpt lat="50.11602" lon="3.63144">
        <ele>145.3</ele>
        <time>2020-06-28T12:24:04Z</time>
      </trkpt>
      <trkpt lat="50.11601" lon="3.63134">
        <ele>145.3</ele>
        <time>2020-06-28T12:24:05Z</time>
      </trkpt>
      <trkpt lat="50.11598" lon="3.6307">
        <ele>147.22</ele>
        <time>2020-06-28T12:24:12Z</time>
      </trkpt>
      <trkpt lat="50.11594" lon="3.63029">
        <ele>148.18</ele>
        <time>2020-06-28T12:24:17Z</time>
      </trkpt>
      <trkpt lat="50.11593" lon="3.63022">
        <ele>148.18</ele>
        <time>2020-06-28T12:24:18Z</time>
      </trkpt>
      <trkpt lat="50.11589" lon="3.62965">
        <ele>149.14</ele>
        <time>2020-06-28T12:24:26Z</time>
      </trkpt>
      <trkpt lat="50.11577" lon="3.62822">
        <ele>149.62</ele>
        <time>2020-06-28T12:24:45Z</time>
      </trkpt>
      <trkpt lat="50.11564" lon="3.62667">
        <ele>148.18</ele>
        <time>2020-06-28T12:25:04Z</time>
      </trkpt>
      <trkpt lat="50.11564" lon="3.62657">
        <ele>148.18</ele>
        <time>2020-06-28T12:25:05Z</time>
      </trkpt>
      <trkpt lat="50.11556" lon="3.62558">
        <ele>145.78</ele>
        <time>2020-06-28T12:25:14Z</time>
      </trkpt>
      <trkpt lat="50.1155" lon="3.62482">
        <ele>144.82</ele>
        <time>2020-06-28T12:25:22Z</time>
      </trkpt>
      <trkpt lat="50.11552" lon="3.62476">
        <ele>144.82</ele>
        <time>2020-06-28T12:25:23Z</time>
      </trkpt>
      <trkpt lat="50.11555" lon="3.62471">
        <ele>144.34</ele>
        <time>2020-06-28T12:25:24Z</time>
      </trkpt>
      <trkpt lat="50.11561" lon="3.6247">
        <ele>144.34</ele>
        <time>2020-06-28T12:25:25Z</time>
      </trkpt>
      <trkpt lat="50.11566" lon="3.6247">
        <ele>144.34</ele>
        <time>2020-06-28T12:25:26Z</time>
      </trkpt>
      <trkpt lat="50.11627" lon="3.6247">
        <ele>145.3</ele>
        <time>2020-06-28T12:25:37Z</time>
      </trkpt>
      <trkpt lat="50.11632" lon="3.6247">
        <ele>145.3</ele>
        <time>2020-06-28T12:25:38Z</time>
      </trkpt>
      <trkpt lat="50.11646" lon="3.62468">
        <ele>146.26</ele>
        <time>2020-06-28T12:25:41Z</time>
      </trkpt>
      <trkpt lat="50.11651" lon="3.62468">
        <ele>146.74</ele>
        <time>2020-06-28T12:25:42Z</time>
      </trkpt>
      <trkpt lat="50.11657" lon="3.62468">
        <ele>147.22</ele>
        <time>2020-06-28T12:25:43Z</time>
      </trkpt>
      <trkpt lat="50.11717" lon="3.62469">
        <ele>149.14</ele>
        <time>2020-06-28T12:25:56Z</time>
      </trkpt>
      <trkpt lat="50.11748" lon="3.62508">
        <ele>150.58</ele>
        <time>2020-06-28T12:26:07Z</time>
      </trkpt>
      <trkpt lat="50.11763" lon="3.62533">
        <ele>151.06</ele>
        <time>2020-06-28T12:26:12Z</time>
      </trkpt>
      <trkpt lat="50.11765" lon="3.62538">
        <ele>151.54</ele>
        <time>2020-06-28T12:26:13Z</time>
      </trkpt>
      <trkpt lat="50.11796" lon="3.62595">
        <ele>152.99</ele>
        <time>2020-06-28T12:26:26Z</time>
      </trkpt>
      <trkpt lat="50.11808" lon="3.62619">
        <ele>153.47</ele>
        <time>2020-06-28T12:26:31Z</time>
      </trkpt>
      <trkpt lat="50.11811" lon="3.62624">
        <ele>153.47</ele>
        <time>2020-06-28T12:26:32Z</time>
      </trkpt>
      <trkpt lat="50.11844" lon="3.62692">
        <ele>153.95</ele>
        <time>2020-06-28T12:26:45Z</time>
      </trkpt>
      <trkpt lat="50.11891" lon="3.62785">
        <ele>153.95</ele>
        <time>2020-06-28T12:27:01Z</time>
      </trkpt>
      <trkpt lat="50.11959" lon="3.62918">
        <ele>155.39</ele>
        <time>2020-06-28T12:27:21Z</time>
      </trkpt>
      <trkpt lat="50.1201" lon="3.63019">
        <ele>156.83</ele>
        <time>2020-06-28T12:27:36Z</time>
      </trkpt>
      <trkpt lat="50.12013" lon="3.63025">
        <ele>157.31</ele>
        <time>2020-06-28T12:27:37Z</time>
      </trkpt>
      <trkpt lat="50.12046" lon="3.63093">
        <ele>158.75</ele>
        <time>2020-06-28T12:27:50Z</time>
      </trkpt>
      <trkpt lat="50.12049" lon="3.63098">
        <ele>158.75</ele>
        <time>2020-06-28T12:27:51Z</time>
      </trkpt>
      <trkpt lat="50.12052" lon="3.63103">
        <ele>159.24</ele>
        <time>2020-06-28T12:27:52Z</time>
      </trkpt>
      <trkpt lat="50.12075" lon="3.63147">
        <ele>159.24</ele>
        <time>2020-06-28T12:28:01Z</time>
      </trkpt>
      <trkpt lat="50.12077" lon="3.63153">
        <ele>159.24</ele>
        <time>2020-06-28T12:28:02Z</time>
      </trkpt>
      <trkpt lat="50.12088" lon="3.63175">
        <ele>159.24</ele>
        <time>2020-06-28T12:28:06Z</time>
      </trkpt>
      <trkpt lat="50.12094" lon="3.63186">
        <ele>158.75</ele>
        <time>2020-06-28T12:28:08Z</time>
      </trkpt>
      <trkpt lat="50.12096" lon="3.63191">
        <ele>158.75</ele>
        <time>2020-06-28T12:28:09Z</time>
      </trkpt>
      <trkpt lat="50.12099" lon="3.63197">
        <ele>158.75</ele>
        <time>2020-06-28T12:28:10Z</time>
      </trkpt>
      <trkpt lat="50.12101" lon="3.63203">
        <ele>158.75</ele>
        <time>2020-06-28T12:28:11Z</time>
      </trkpt>
      <trkpt lat="50.12104" lon="3.63208">
        <ele>158.75</ele>
        <time>2020-06-28T12:28:12Z</time>
      </trkpt>
      <trkpt lat="50.12159" lon="3.63316">
        <ele>157.31</ele>
        <time>2020-06-28T12:28:27Z</time>
      </trkpt>
      <trkpt lat="50.122" lon="3.63389">
        <ele>154.43</ele>
        <time>2020-06-28T12:28:36Z</time>
      </trkpt>
      <trkpt lat="50.12206" lon="3.63398">
        <ele>154.43</ele>
        <time>2020-06-28T12:28:37Z</time>
      </trkpt>
      <trkpt lat="50.12224" lon="3.63424">
        <ele>152.99</ele>
        <time>2020-06-28T12:28:40Z</time>
      </trkpt>
      <trkpt lat="50.12261" lon="3.63467">
        <ele>152.51</ele>
        <time>2020-06-28T12:28:46Z</time>
      </trkpt>
      <trkpt lat="50.12347" lon="3.63541">
        <ele>151.54</ele>
        <time>2020-06-28T12:28:59Z</time>
      </trkpt>
      <trkpt lat="50.12364" lon="3.63557">
        <ele>152.99</ele>
        <time>2020-06-28T12:29:02Z</time>
      </trkpt>
      <trkpt lat="50.12439" lon="3.63621">
        <ele>154.91</ele>
        <time>2020-06-28T12:29:17Z</time>
      </trkpt>
      <trkpt lat="50.12521" lon="3.63694">
        <ele>154.91</ele>
        <time>2020-06-28T12:29:34Z</time>
      </trkpt>
      <trkpt lat="50.12601" lon="3.63772">
        <ele>154.91</ele>
        <time>2020-06-28T12:29:50Z</time>
      </trkpt>
      <trkpt lat="50.12657" lon="3.63817">
        <ele>156.35</ele>
        <time>2020-06-28T12:30:01Z</time>
      </trkpt>
      <trkpt lat="50.12662" lon="3.63819">
        <ele>156.83</ele>
        <time>2020-06-28T12:30:02Z</time>
      </trkpt>
      <trkpt lat="50.12735" lon="3.63852">
        <ele>157.79</ele>
        <time>2020-06-28T12:30:16Z</time>
      </trkpt>
      <trkpt lat="50.12819" lon="3.63885">
        <ele>157.79</ele>
        <time>2020-06-28T12:30:32Z</time>
      </trkpt>
      <trkpt lat="50.12902" lon="3.63909">
        <ele>156.35</ele>
        <time>2020-06-28T12:30:47Z</time>
      </trkpt>
      <trkpt lat="50.12908" lon="3.63911">
        <ele>156.35</ele>
        <time>2020-06-28T12:30:48Z</time>
      </trkpt>
      <trkpt lat="50.13013" lon="3.63946">
        <ele>154.43</ele>
        <time>2020-06-28T12:31:03Z</time>
      </trkpt>
      <trkpt lat="50.13095" lon="3.63965">
        <ele>155.87</ele>
        <time>2020-06-28T12:31:16Z</time>
      </trkpt>
      <trkpt lat="50.13168" lon="3.63978">
        <ele>157.31</ele>
        <time>2020-06-28T12:31:30Z</time>
      </trkpt>
      <trkpt lat="50.13223" lon="3.6399">
        <ele>159.72</ele>
        <time>2020-06-28T12:31:42Z</time>
      </trkpt>
      <trkpt lat="50.13236" lon="3.63992">
        <ele>160.2</ele>
        <time>2020-06-28T12:31:45Z</time>
      </trkpt>
      <trkpt lat="50.13301" lon="3.64014">
        <ele>162.6</ele>
        <time>2020-06-28T12:31:59Z</time>
      </trkpt>
      <trkpt lat="50.13305" lon="3.64015">
        <ele>162.6</ele>
        <time>2020-06-28T12:32:00Z</time>
      </trkpt>
      <trkpt lat="50.1332" lon="3.6402">
        <ele>163.08</ele>
        <time>2020-06-28T12:32:03Z</time>
      </trkpt>
      <trkpt lat="50.13324" lon="3.64023">
        <ele>163.56</ele>
        <time>2020-06-28T12:32:04Z</time>
      </trkpt>
      <trkpt lat="50.13327" lon="3.64029">
        <ele>163.56</ele>
        <time>2020-06-28T12:32:05Z</time>
      </trkpt>
      <trkpt lat="50.13329" lon="3.64036">
        <ele>163.56</ele>
        <time>2020-06-28T12:32:06Z</time>
      </trkpt>
      <trkpt lat="50.1333" lon="3.64042">
        <ele>163.56</ele>
        <time>2020-06-28T12:32:07Z</time>
      </trkpt>
      <trkpt lat="50.1333" lon="3.6405">
        <ele>163.56</ele>
        <time>2020-06-28T12:32:08Z</time>
      </trkpt>
      <trkpt lat="50.13339" lon="3.64167">
        <ele>162.12</ele>
        <time>2020-06-28T12:32:22Z</time>
      </trkpt>
      <trkpt lat="50.13366" lon="3.6432">
        <ele>161.64</ele>
        <time>2020-06-28T12:32:39Z</time>
      </trkpt>
      <trkpt lat="50.13386" lon="3.64492">
        <ele>161.16</ele>
        <time>2020-06-28T12:32:57Z</time>
      </trkpt>
      <trkpt lat="50.13406" lon="3.64637">
        <ele>163.08</ele>
        <time>2020-06-28T12:33:14Z</time>
      </trkpt>
      <trkpt lat="50.13424" lon="3.64773">
        <ele>164.04</ele>
        <time>2020-06-28T12:33:30Z</time>
      </trkpt>
      <trkpt lat="50.13448" lon="3.6489">
        <ele>163.56</ele>
        <time>2020-06-28T12:33:46Z</time>
      </trkpt>
      <trkpt lat="50.13478" lon="3.64988">
        <ele>165</ele>
        <time>2020-06-28T12:34:00Z</time>
      </trkpt>
      <trkpt lat="50.13496" lon="3.65066">
        <ele>163.56</ele>
        <time>2020-06-28T12:34:09Z</time>
      </trkpt>
      <trkpt lat="50.1352" lon="3.65228">
        <ele>163.08</ele>
        <time>2020-06-28T12:34:27Z</time>
      </trkpt>
      <trkpt lat="50.13536" lon="3.65324">
        <ele>164.52</ele>
        <time>2020-06-28T12:34:39Z</time>
      </trkpt>
      <trkpt lat="50.1356" lon="3.65419">
        <ele>164.52</ele>
        <time>2020-06-28T12:34:51Z</time>
      </trkpt>
      <trkpt lat="50.13582" lon="3.65506">
        <ele>164.52</ele>
        <time>2020-06-28T12:35:02Z</time>
      </trkpt>
      <trkpt lat="50.13592" lon="3.65536">
        <ele>164.52</ele>
        <time>2020-06-28T12:35:06Z</time>
      </trkpt>
      <trkpt lat="50.13595" lon="3.65543">
        <ele>164.52</ele>
        <time>2020-06-28T12:35:07Z</time>
      </trkpt>
      <trkpt lat="50.13618" lon="3.65592">
        <ele>165</ele>
        <time>2020-06-28T12:35:15Z</time>
      </trkpt>
      <trkpt lat="50.13621" lon="3.65597">
        <ele>165</ele>
        <time>2020-06-28T12:35:16Z</time>
      </trkpt>
      <trkpt lat="50.13673" lon="3.65693">
        <ele>166.93</ele>
        <time>2020-06-28T12:35:33Z</time>
      </trkpt>
      <trkpt lat="50.13741" lon="3.65779">
        <ele>167.89</ele>
        <time>2020-06-28T12:35:50Z</time>
      </trkpt>
      <trkpt lat="50.13744" lon="3.65783">
        <ele>167.89</ele>
        <time>2020-06-28T12:35:51Z</time>
      </trkpt>
      <trkpt lat="50.13746" lon="3.65789">
        <ele>167.89</ele>
        <time>2020-06-28T12:35:52Z</time>
      </trkpt>
      <trkpt lat="50.13749" lon="3.65795">
        <ele>167.89</ele>
        <time>2020-06-28T12:35:53Z</time>
      </trkpt>
      <trkpt lat="50.1375" lon="3.65802">
        <ele>167.89</ele>
        <time>2020-06-28T12:35:54Z</time>
      </trkpt>
      <trkpt lat="50.1375" lon="3.65811">
        <ele>167.89</ele>
        <time>2020-06-28T12:35:55Z</time>
      </trkpt>
      <trkpt lat="50.13749" lon="3.65818">
        <ele>167.89</ele>
        <time>2020-06-28T12:35:56Z</time>
      </trkpt>
      <trkpt lat="50.13748" lon="3.65826">
        <ele>167.89</ele>
        <time>2020-06-28T12:35:57Z</time>
      </trkpt>
      <trkpt lat="50.13745" lon="3.65929">
        <ele>166.45</ele>
        <time>2020-06-28T12:36:09Z</time>
      </trkpt>
      <trkpt lat="50.13746" lon="3.65938">
        <ele>167.89</ele>
        <time>2020-06-28T12:36:10Z</time>
      </trkpt>
      <trkpt lat="50.13749" lon="3.65946">
        <ele>167.89</ele>
        <time>2020-06-28T12:36:11Z</time>
      </trkpt>
      <trkpt lat="50.13753" lon="3.65953">
        <ele>167.89</ele>
        <time>2020-06-28T12:36:12Z</time>
      </trkpt>
      <trkpt lat="50.13758" lon="3.65958">
        <ele>167.89</ele>
        <time>2020-06-28T12:36:13Z</time>
      </trkpt>
      <trkpt lat="50.13763" lon="3.65963">
        <ele>167.89</ele>
        <time>2020-06-28T12:36:14Z</time>
      </trkpt>
      <trkpt lat="50.13767" lon="3.65968">
        <ele>167.89</ele>
        <time>2020-06-28T12:36:15Z</time>
      </trkpt>
      <trkpt lat="50.13814" lon="3.66036">
        <ele>164.52</ele>
        <time>2020-06-28T12:36:24Z</time>
      </trkpt>
      <trkpt lat="50.13879" lon="3.66132">
        <ele>162.6</ele>
        <time>2020-06-28T12:36:35Z</time>
      </trkpt>
      <trkpt lat="50.13972" lon="3.66269">
        <ele>160.2</ele>
        <time>2020-06-28T12:36:51Z</time>
      </trkpt>
      <trkpt lat="50.14055" lon="3.6639">
        <ele>158.27</ele>
        <time>2020-06-28T12:37:05Z</time>
      </trkpt>
      <trkpt lat="50.14075" lon="3.6642">
        <ele>159.72</ele>
        <time>2020-06-28T12:37:09Z</time>
      </trkpt>
      <trkpt lat="50.14109" lon="3.66469">
        <ele>162.12</ele>
        <time>2020-06-28T12:37:17Z</time>
      </trkpt>
      <trkpt lat="50.14113" lon="3.66475">
        <ele>162.6</ele>
        <time>2020-06-28T12:37:18Z</time>
      </trkpt>
      <trkpt lat="50.14118" lon="3.66481">
        <ele>162.6</ele>
        <time>2020-06-28T12:37:19Z</time>
      </trkpt>
      <trkpt lat="50.14122" lon="3.66488">
        <ele>162.6</ele>
        <time>2020-06-28T12:37:20Z</time>
      </trkpt>
      <trkpt lat="50.14126" lon="3.66495">
        <ele>162.6</ele>
        <time>2020-06-28T12:37:21Z</time>
      </trkpt>
      <trkpt lat="50.14144" lon="3.6652">
        <ele>164.52</ele>
        <time>2020-06-28T12:37:25Z</time>
      </trkpt>
      <trkpt lat="50.14153" lon="3.66533">
        <ele>164.52</ele>
        <time>2020-06-28T12:37:27Z</time>
      </trkpt>
      <trkpt lat="50.14158" lon="3.66539">
        <ele>164.52</ele>
        <time>2020-06-28T12:37:28Z</time>
      </trkpt>
      <trkpt lat="50.1422" lon="3.66625">
        <ele>167.41</ele>
        <time>2020-06-28T12:37:41Z</time>
      </trkpt>
      <trkpt lat="50.14267" lon="3.66701">
        <ele>168.37</ele>
        <time>2020-06-28T12:37:55Z</time>
      </trkpt>
      <trkpt lat="50.1428" lon="3.66725">
        <ele>168.85</ele>
        <time>2020-06-28T12:38:00Z</time>
      </trkpt>
      <trkpt lat="50.14278" lon="3.66732">
        <ele>168.85</ele>
        <time>2020-06-28T12:38:01Z</time>
      </trkpt>
      <trkpt lat="50.14276" lon="3.66735">
        <ele>168.85</ele>
        <time>2020-06-28T12:38:02Z</time>
      </trkpt>
      <trkpt lat="50.14272" lon="3.6674">
        <ele>168.85</ele>
        <time>2020-06-28T12:38:03Z</time>
      </trkpt>
      <trkpt lat="50.14269" lon="3.66745">
        <ele>168.85</ele>
        <time>2020-06-28T12:38:04Z</time>
      </trkpt>
      <trkpt lat="50.14245" lon="3.66786">
        <ele>167.41</ele>
        <time>2020-06-28T12:38:11Z</time>
      </trkpt>
      <trkpt lat="50.1422" lon="3.66828">
        <ele>167.41</ele>
        <time>2020-06-28T12:38:18Z</time>
      </trkpt>
      <trkpt lat="50.14145" lon="3.66955">
        <ele>166.93</ele>
        <time>2020-06-28T12:38:38Z</time>
      </trkpt>
      <trkpt lat="50.14105" lon="3.67025">
        <ele>166.93</ele>
        <time>2020-06-28T12:38:52Z</time>
      </trkpt>
      <trkpt lat="50.14105" lon="3.67032">
        <ele>166.93</ele>
        <time>2020-06-28T12:38:53Z</time>
      </trkpt>
      <trkpt lat="50.14106" lon="3.67038">
        <ele>166.93</ele>
        <time>2020-06-28T12:38:54Z</time>
      </trkpt>
      <trkpt lat="50.14108" lon="3.67044">
        <ele>166.93</ele>
        <time>2020-06-28T12:38:55Z</time>
      </trkpt>
      <trkpt lat="50.1411" lon="3.67052">
        <ele>166.93</ele>
        <time>2020-06-28T12:38:56Z</time>
      </trkpt>
      <trkpt lat="50.1411" lon="3.6706">
        <ele>166.93</ele>
        <time>2020-06-28T12:38:57Z</time>
      </trkpt>
      <trkpt lat="50.14111" lon="3.67068">
        <ele>166.93</ele>
        <time>2020-06-28T12:38:58Z</time>
      </trkpt>
      <trkpt lat="50.14111" lon="3.67077">
        <ele>166.93</ele>
        <time>2020-06-28T12:38:59Z</time>
      </trkpt>
      <trkpt lat="50.1412" lon="3.67204">
        <ele>165</ele>
        <time>2020-06-28T12:39:12Z</time>
      </trkpt>
      <trkpt lat="50.14128" lon="3.67258">
        <ele>164.52</ele>
        <time>2020-06-28T12:39:17Z</time>
      </trkpt>
      <trkpt lat="50.14128" lon="3.67269">
        <ele>164.52</ele>
        <time>2020-06-28T12:39:18Z</time>
      </trkpt>
      <trkpt lat="50.14128" lon="3.6728">
        <ele>164.52</ele>
        <time>2020-06-28T12:39:19Z</time>
      </trkpt>
      <trkpt lat="50.14127" lon="3.67291">
        <ele>164.52</ele>
        <time>2020-06-28T12:39:20Z</time>
      </trkpt>
      <trkpt lat="50.14126" lon="3.67301">
        <ele>164.52</ele>
        <time>2020-06-28T12:39:21Z</time>
      </trkpt>
      <trkpt lat="50.14111" lon="3.67453">
        <ele>165.48</ele>
        <time>2020-06-28T12:39:37Z</time>
      </trkpt>
      <trkpt lat="50.1411" lon="3.6748">
        <ele>165.96</ele>
        <time>2020-06-28T12:39:40Z</time>
      </trkpt>
      <trkpt lat="50.14096" lon="3.67634">
        <ele>164.52</ele>
        <time>2020-06-28T12:39:57Z</time>
      </trkpt>
      <trkpt lat="50.14086" lon="3.67757">
        <ele>164.52</ele>
        <time>2020-06-28T12:40:12Z</time>
      </trkpt>
      <trkpt lat="50.14085" lon="3.67764">
        <ele>164.52</ele>
        <time>2020-06-28T12:40:13Z</time>
      </trkpt>
      <trkpt lat="50.14084" lon="3.67769">
        <ele>164.52</ele>
        <time>2020-06-28T12:40:14Z</time>
      </trkpt>
      <trkpt lat="50.1408" lon="3.67786">
        <ele>164.52</ele>
        <time>2020-06-28T12:40:17Z</time>
      </trkpt>
      <trkpt lat="50.14079" lon="3.67793">
        <ele>164.52</ele>
        <time>2020-06-28T12:40:18Z</time>
      </trkpt>
      <trkpt lat="50.14076" lon="3.67817">
        <ele>164.52</ele>
        <time>2020-06-28T12:40:21Z</time>
      </trkpt>
      <trkpt lat="50.14043" lon="3.67967">
        <ele>165.96</ele>
        <time>2020-06-28T12:40:40Z</time>
      </trkpt>
      <trkpt lat="50.14028" lon="3.68082">
        <ele>166.45</ele>
        <time>2020-06-28T12:40:54Z</time>
      </trkpt>
      <trkpt lat="50.14004" lon="3.68223">
        <ele>168.85</ele>
        <time>2020-06-28T12:41:10Z</time>
      </trkpt>
      <trkpt lat="50.14003" lon="3.68232">
        <ele>169.33</ele>
        <time>2020-06-28T12:41:11Z</time>
      </trkpt>
      <trkpt lat="50.13983" lon="3.68319">
        <ele>170.77</ele>
        <time>2020-06-28T12:41:23Z</time>
      </trkpt>
      <trkpt lat="50.13971" lon="3.68456">
        <ele>170.77</ele>
        <time>2020-06-28T12:41:39Z</time>
      </trkpt>
      <trkpt lat="50.13971" lon="3.68475">
        <ele>169.33</ele>
        <time>2020-06-28T12:41:41Z</time>
      </trkpt>
      <trkpt lat="50.13965" lon="3.68634">
        <ele>169.33</ele>
        <time>2020-06-28T12:41:58Z</time>
      </trkpt>
      <trkpt lat="50.1396" lon="3.68759">
        <ele>167.41</ele>
        <time>2020-06-28T12:42:12Z</time>
      </trkpt>
      <trkpt lat="50.13952" lon="3.68889">
        <ele>167.41</ele>
        <time>2020-06-28T12:42:27Z</time>
      </trkpt>
      <trkpt lat="50.13948" lon="3.68953">
        <ele>168.85</ele>
        <time>2020-06-28T12:42:35Z</time>
      </trkpt>
      <trkpt lat="50.13948" lon="3.68977">
        <ele>168.85</ele>
        <time>2020-06-28T12:42:38Z</time>
      </trkpt>
      <trkpt lat="50.13947" lon="3.68986">
        <ele>168.85</ele>
        <time>2020-06-28T12:42:39Z</time>
      </trkpt>
      <trkpt lat="50.13946" lon="3.68995">
        <ele>168.85</ele>
        <time>2020-06-28T12:42:40Z</time>
      </trkpt>
      <trkpt lat="50.13945" lon="3.69014">
        <ele>167.41</ele>
        <time>2020-06-28T12:42:42Z</time>
      </trkpt>
      <trkpt lat="50.13942" lon="3.69036">
        <ele>165.96</ele>
        <time>2020-06-28T12:42:44Z</time>
      </trkpt>
      <trkpt lat="50.1394" lon="3.69047">
        <ele>165.96</ele>
        <time>2020-06-28T12:42:45Z</time>
      </trkpt>
      <trkpt lat="50.13931" lon="3.69094">
        <ele>164.04</ele>
        <time>2020-06-28T12:42:49Z</time>
      </trkpt>
      <trkpt lat="50.1393" lon="3.69106">
        <ele>164.04</ele>
        <time>2020-06-28T12:42:50Z</time>
      </trkpt>
      <trkpt lat="50.13929" lon="3.69118">
        <ele>164.04</ele>
        <time>2020-06-28T12:42:51Z</time>
      </trkpt>
      <trkpt lat="50.13934" lon="3.6917">
        <ele>164.04</ele>
        <time>2020-06-28T12:42:55Z</time>
      </trkpt>
      <trkpt lat="50.13937" lon="3.69231">
        <ele>163.08</ele>
        <time>2020-06-28T12:43:00Z</time>
      </trkpt>
      <trkpt lat="50.13936" lon="3.69242">
        <ele>163.08</ele>
        <time>2020-06-28T12:43:01Z</time>
      </trkpt>
      <trkpt lat="50.13934" lon="3.69252">
        <ele>163.08</ele>
        <time>2020-06-28T12:43:02Z</time>
      </trkpt>
      <trkpt lat="50.13933" lon="3.69263">
        <ele>163.08</ele>
        <time>2020-06-28T12:43:03Z</time>
      </trkpt>
      <trkpt lat="50.13931" lon="3.69273">
        <ele>163.08</ele>
        <time>2020-06-28T12:43:04Z</time>
      </trkpt>
      <trkpt lat="50.13907" lon="3.69431">
        <ele>161.64</ele>
        <time>2020-06-28T12:43:19Z</time>
      </trkpt>
      <trkpt lat="50.13896" lon="3.69539">
        <ele>160.68</ele>
        <time>2020-06-28T12:43:32Z</time>
      </trkpt>
      <trkpt lat="50.1389" lon="3.69572">
        <ele>160.68</ele>
        <time>2020-06-28T12:43:36Z</time>
      </trkpt>
      <trkpt lat="50.13888" lon="3.6958">
        <ele>159.72</ele>
        <time>2020-06-28T12:43:37Z</time>
      </trkpt>
      <trkpt lat="50.13872" lon="3.69668">
        <ele>159.24</ele>
        <time>2020-06-28T12:43:46Z</time>
      </trkpt>
      <trkpt lat="50.13867" lon="3.6972">
        <ele>158.75</ele>
        <time>2020-06-28T12:43:51Z</time>
      </trkpt>
      <trkpt lat="50.13867" lon="3.69744">
        <ele>158.27</ele>
        <time>2020-06-28T12:43:53Z</time>
      </trkpt>
      <trkpt lat="50.13868" lon="3.69766">
        <ele>158.27</ele>
        <time>2020-06-28T12:43:55Z</time>
      </trkpt>
      <trkpt lat="50.13863" lon="3.69862">
        <ele>157.31</ele>
        <time>2020-06-28T12:44:03Z</time>
      </trkpt>
      <trkpt lat="50.13842" lon="3.69982">
        <ele>153.47</ele>
        <time>2020-06-28T12:44:13Z</time>
      </trkpt>
      <trkpt lat="50.13841" lon="3.69994">
        <ele>152.99</ele>
        <time>2020-06-28T12:44:14Z</time>
      </trkpt>
      <trkpt lat="50.13833" lon="3.7007">
        <ele>151.54</ele>
        <time>2020-06-28T12:44:20Z</time>
      </trkpt>
      <trkpt lat="50.13834" lon="3.70081">
        <ele>150.58</ele>
        <time>2020-06-28T12:44:21Z</time>
      </trkpt>
      <trkpt lat="50.13835" lon="3.70093">
        <ele>150.58</ele>
        <time>2020-06-28T12:44:22Z</time>
      </trkpt>
      <trkpt lat="50.13838" lon="3.70104">
        <ele>149.62</ele>
        <time>2020-06-28T12:44:23Z</time>
      </trkpt>
      <trkpt lat="50.13842" lon="3.70114">
        <ele>149.62</ele>
        <time>2020-06-28T12:44:24Z</time>
      </trkpt>
      <trkpt lat="50.13851" lon="3.70145">
        <ele>149.14</ele>
        <time>2020-06-28T12:44:27Z</time>
      </trkpt>
      <trkpt lat="50.13851" lon="3.70156">
        <ele>149.14</ele>
        <time>2020-06-28T12:44:28Z</time>
      </trkpt>
      <trkpt lat="50.13849" lon="3.70168">
        <ele>148.18</ele>
        <time>2020-06-28T12:44:29Z</time>
      </trkpt>
      <trkpt lat="50.13804" lon="3.70297">
        <ele>144.82</ele>
        <time>2020-06-28T12:44:40Z</time>
      </trkpt>
      <trkpt lat="50.13794" lon="3.70319">
        <ele>144.34</ele>
        <time>2020-06-28T12:44:42Z</time>
      </trkpt>
      <trkpt lat="50.13788" lon="3.70326">
        <ele>143.85</ele>
        <time>2020-06-28T12:44:43Z</time>
      </trkpt>
      <trkpt lat="50.13772" lon="3.70339">
        <ele>143.37</ele>
        <time>2020-06-28T12:44:45Z</time>
      </trkpt>
      <trkpt lat="50.13766" lon="3.70348">
        <ele>142.41</ele>
        <time>2020-06-28T12:44:46Z</time>
      </trkpt>
      <trkpt lat="50.1376" lon="3.70359">
        <ele>142.41</ele>
        <time>2020-06-28T12:44:47Z</time>
      </trkpt>
      <trkpt lat="50.13732" lon="3.70418">
        <ele>141.45</ele>
        <time>2020-06-28T12:44:53Z</time>
      </trkpt>
      <trkpt lat="50.13728" lon="3.70423">
        <ele>141.45</ele>
        <time>2020-06-28T12:44:54Z</time>
      </trkpt>
      <trkpt lat="50.13723" lon="3.70422">
        <ele>141.45</ele>
        <time>2020-06-28T12:44:55Z</time>
      </trkpt>
      <trkpt lat="50.13719" lon="3.70416">
        <ele>141.45</ele>
        <time>2020-06-28T12:44:56Z</time>
      </trkpt>
      <trkpt lat="50.13717" lon="3.70408">
        <ele>141.45</ele>
        <time>2020-06-28T12:44:57Z</time>
      </trkpt>
      <trkpt lat="50.13716" lon="3.70401">
        <ele>141.45</ele>
        <time>2020-06-28T12:44:58Z</time>
      </trkpt>
      <trkpt lat="50.13714" lon="3.70393">
        <ele>141.45</ele>
        <time>2020-06-28T12:44:59Z</time>
      </trkpt>
      <trkpt lat="50.13712" lon="3.70385">
        <ele>141.45</ele>
        <time>2020-06-28T12:45:00Z</time>
      </trkpt>
      <trkpt lat="50.1371" lon="3.70378">
        <ele>141.45</ele>
        <time>2020-06-28T12:45:01Z</time>
      </trkpt>
      <trkpt lat="50.13681" lon="3.70285">
        <ele>144.82</ele>
        <time>2020-06-28T12:45:13Z</time>
      </trkpt>
      <trkpt lat="50.13679" lon="3.70276">
        <ele>144.82</ele>
        <time>2020-06-28T12:45:14Z</time>
      </trkpt>
      <trkpt lat="50.13677" lon="3.70268">
        <ele>144.82</ele>
        <time>2020-06-28T12:45:15Z</time>
      </trkpt>
      <trkpt lat="50.13675" lon="3.70259">
        <ele>144.82</ele>
        <time>2020-06-28T12:45:16Z</time>
      </trkpt>
      <trkpt lat="50.13669" lon="3.70234">
        <ele>145.78</ele>
        <time>2020-06-28T12:45:19Z</time>
      </trkpt>
      <trkpt lat="50.13664" lon="3.70218">
        <ele>145.78</ele>
        <time>2020-06-28T12:45:21Z</time>
      </trkpt>
      <trkpt lat="50.13663" lon="3.70211">
        <ele>146.26</ele>
        <time>2020-06-28T12:45:22Z</time>
      </trkpt>
      <trkpt lat="50.13661" lon="3.70203">
        <ele>146.74</ele>
        <time>2020-06-28T12:45:23Z</time>
      </trkpt>
      <trkpt lat="50.13659" lon="3.70195">
        <ele>146.74</ele>
        <time>2020-06-28T12:45:24Z</time>
      </trkpt>
      <trkpt lat="50.13658" lon="3.70187">
        <ele>147.7</ele>
        <time>2020-06-28T12:45:25Z</time>
      </trkpt>
      <trkpt lat="50.13644" lon="3.70124">
        <ele>149.62</ele>
        <time>2020-06-28T12:45:34Z</time>
      </trkpt>
      <trkpt lat="50.13642" lon="3.70118">
        <ele>149.62</ele>
        <time>2020-06-28T12:45:35Z</time>
      </trkpt>
      <trkpt lat="50.13614" lon="3.70063">
        <ele>152.51</ele>
        <time>2020-06-28T12:45:47Z</time>
      </trkpt>
      <trkpt lat="50.13593" lon="3.70009">
        <ele>152.99</ele>
        <time>2020-06-28T12:45:58Z</time>
      </trkpt>
      <trkpt lat="50.13591" lon="3.70003">
        <ele>152.99</ele>
        <time>2020-06-28T12:45:59Z</time>
      </trkpt>
      <trkpt lat="50.1359" lon="3.69997">
        <ele>152.99</ele>
        <time>2020-06-28T12:46:00Z</time>
      </trkpt>
      <trkpt lat="50.13571" lon="3.69933">
        <ele>153.47</ele>
        <time>2020-06-28T12:46:10Z</time>
      </trkpt>
      <trkpt lat="50.13567" lon="3.69922">
        <ele>153.47</ele>
        <time>2020-06-28T12:46:12Z</time>
      </trkpt>
      <trkpt lat="50.1355" lon="3.69854">
        <ele>153.47</ele>
        <time>2020-06-28T12:46:22Z</time>
      </trkpt>
      <trkpt lat="50.13545" lon="3.69832">
        <ele>153.47</ele>
        <time>2020-06-28T12:46:25Z</time>
      </trkpt>
      <trkpt lat="50.13524" lon="3.69755">
        <ele>152.03</ele>
        <time>2020-06-28T12:46:35Z</time>
      </trkpt>
      <trkpt lat="50.13505" lon="3.69697">
        <ele>151.54</ele>
        <time>2020-06-28T12:46:43Z</time>
      </trkpt>
      <trkpt lat="50.135" lon="3.69683">
        <ele>152.99</ele>
        <time>2020-06-28T12:46:45Z</time>
      </trkpt>
      <trkpt lat="50.13495" lon="3.69668">
        <ele>153.47</ele>
        <time>2020-06-28T12:46:47Z</time>
      </trkpt>
      <trkpt lat="50.13481" lon="3.69637">
        <ele>153.95</ele>
        <time>2020-06-28T12:46:52Z</time>
      </trkpt>
      <trkpt lat="50.13438" lon="3.69554">
        <ele>153.95</ele>
        <time>2020-06-28T12:47:06Z</time>
      </trkpt>
      <trkpt lat="50.134" lon="3.69442">
        <ele>153.95</ele>
        <time>2020-06-28T12:47:23Z</time>
      </trkpt>
      <trkpt lat="50.13398" lon="3.69435">
        <ele>153.95</ele>
        <time>2020-06-28T12:47:24Z</time>
      </trkpt>
      <trkpt lat="50.13396" lon="3.69429">
        <ele>153.95</ele>
        <time>2020-06-28T12:47:25Z</time>
      </trkpt>
      <trkpt lat="50.13382" lon="3.69381">
        <ele>154.43</ele>
        <time>2020-06-28T12:47:33Z</time>
      </trkpt>
      <trkpt lat="50.13377" lon="3.69362">
        <ele>154.43</ele>
        <time>2020-06-28T12:47:36Z</time>
      </trkpt>
      <trkpt lat="50.13375" lon="3.69355">
        <ele>154.43</ele>
        <time>2020-06-28T12:47:37Z</time>
      </trkpt>
      <trkpt lat="50.13363" lon="3.69314">
        <ele>152.99</ele>
        <time>2020-06-28T12:47:43Z</time>
      </trkpt>
      <trkpt lat="50.13329" lon="3.69187">
        <ele>151.06</ele>
        <time>2020-06-28T12:47:58Z</time>
      </trkpt>
      <trkpt lat="50.13296" lon="3.69083">
        <ele>149.14</ele>
        <time>2020-06-28T12:48:09Z</time>
      </trkpt>
      <trkpt lat="50.13232" lon="3.68987">
        <ele>149.14</ele>
        <time>2020-06-28T12:48:24Z</time>
      </trkpt>
      <trkpt lat="50.13162" lon="3.68887">
        <ele>146.74</ele>
        <time>2020-06-28T12:48:40Z</time>
      </trkpt>
      <trkpt lat="50.13088" lon="3.68772">
        <ele>144.34</ele>
        <time>2020-06-28T12:48:56Z</time>
      </trkpt>
      <trkpt lat="50.13042" lon="3.68671">
        <ele>140.97</ele>
        <time>2020-06-28T12:49:08Z</time>
      </trkpt>
      <trkpt lat="50.13025" lon="3.68633">
        <ele>140.01</ele>
        <time>2020-06-28T12:49:13Z</time>
      </trkpt>
      <trkpt lat="50.13021" lon="3.68625">
        <ele>140.01</ele>
        <time>2020-06-28T12:49:14Z</time>
      </trkpt>
      <trkpt lat="50.12998" lon="3.6858">
        <ele>140.01</ele>
        <time>2020-06-28T12:49:20Z</time>
      </trkpt>
      <trkpt lat="50.12995" lon="3.68573">
        <ele>140.01</ele>
        <time>2020-06-28T12:49:21Z</time>
      </trkpt>
      <trkpt lat="50.12963" lon="3.68513">
        <ele>141.45</ele>
        <time>2020-06-28T12:49:30Z</time>
      </trkpt>
      <trkpt lat="50.12944" lon="3.68463">
        <ele>141.93</ele>
        <time>2020-06-28T12:49:37Z</time>
      </trkpt>
      <trkpt lat="50.12942" lon="3.68456">
        <ele>141.93</ele>
        <time>2020-06-28T12:49:38Z</time>
      </trkpt>
      <trkpt lat="50.12919" lon="3.68391">
        <ele>141.93</ele>
        <time>2020-06-28T12:49:48Z</time>
      </trkpt>
      <trkpt lat="50.12911" lon="3.68366">
        <ele>141.93</ele>
        <time>2020-06-28T12:49:52Z</time>
      </trkpt>
      <trkpt lat="50.12899" lon="3.68318">
        <ele>141.93</ele>
        <time>2020-06-28T12:49:59Z</time>
      </trkpt>
      <trkpt lat="50.12897" lon="3.68311">
        <ele>141.93</ele>
        <time>2020-06-28T12:50:00Z</time>
      </trkpt>
      <trkpt lat="50.12896" lon="3.68304">
        <ele>141.93</ele>
        <time>2020-06-28T12:50:01Z</time>
      </trkpt>
      <trkpt lat="50.12883" lon="3.68258">
        <ele>141.93</ele>
        <time>2020-06-28T12:50:07Z</time>
      </trkpt>
      <trkpt lat="50.12871" lon="3.68204">
        <ele>141.93</ele>
        <time>2020-06-28T12:50:14Z</time>
      </trkpt>
      <trkpt lat="50.12867" lon="3.68184">
        <ele>141.93</ele>
        <time>2020-06-28T12:50:17Z</time>
      </trkpt>
      <trkpt lat="50.12864" lon="3.68177">
        <ele>141.93</ele>
        <time>2020-06-28T12:50:18Z</time>
      </trkpt>
      <trkpt lat="50.12862" lon="3.68172">
        <ele>140.49</ele>
        <time>2020-06-28T12:50:19Z</time>
      </trkpt>
      <trkpt lat="50.12859" lon="3.68166">
        <ele>140.49</ele>
        <time>2020-06-28T12:50:20Z</time>
      </trkpt>
      <trkpt lat="50.12857" lon="3.6816">
        <ele>140.01</ele>
        <time>2020-06-28T12:50:21Z</time>
      </trkpt>
      <trkpt lat="50.12854" lon="3.68154">
        <ele>140.01</ele>
        <time>2020-06-28T12:50:22Z</time>
      </trkpt>
      <trkpt lat="50.12846" lon="3.68135">
        <ele>140.01</ele>
        <time>2020-06-28T12:50:25Z</time>
      </trkpt>
      <trkpt lat="50.12843" lon="3.68129">
        <ele>140.01</ele>
        <time>2020-06-28T12:50:26Z</time>
      </trkpt>
      <trkpt lat="50.12821" lon="3.68081">
        <ele>140.01</ele>
        <time>2020-06-28T12:50:34Z</time>
      </trkpt>
      <trkpt lat="50.1282" lon="3.68074">
        <ele>140.01</ele>
        <time>2020-06-28T12:50:35Z</time>
      </trkpt>
      <trkpt lat="50.12821" lon="3.68067">
        <ele>140.01</ele>
        <time>2020-06-28T12:50:36Z</time>
      </trkpt>
      <trkpt lat="50.12823" lon="3.6806">
        <ele>140.01</ele>
        <time>2020-06-28T12:50:37Z</time>
      </trkpt>
      <trkpt lat="50.12827" lon="3.68055">
        <ele>140.01</ele>
        <time>2020-06-28T12:50:38Z</time>
      </trkpt>
      <trkpt lat="50.12831" lon="3.68051">
        <ele>140.01</ele>
        <time>2020-06-28T12:50:39Z</time>
      </trkpt>
      <trkpt lat="50.12835" lon="3.68048">
        <ele>140.01</ele>
        <time>2020-06-28T12:50:40Z</time>
      </trkpt>
      <trkpt lat="50.1284" lon="3.68045">
        <ele>140.97</ele>
        <time>2020-06-28T12:50:41Z</time>
      </trkpt>
      <trkpt lat="50.12843" lon="3.68041">
        <ele>140.97</ele>
        <time>2020-06-28T12:50:42Z</time>
      </trkpt>
      <trkpt lat="50.12847" lon="3.68038">
        <ele>141.45</ele>
        <time>2020-06-28T12:50:43Z</time>
      </trkpt>
      <trkpt lat="50.12863" lon="3.6803">
        <ele>142.41</ele>
        <time>2020-06-28T12:50:47Z</time>
      </trkpt>
      <trkpt lat="50.12867" lon="3.68027">
        <ele>142.41</ele>
        <time>2020-06-28T12:50:48Z</time>
      </trkpt>
      <trkpt lat="50.12886" lon="3.68016">
        <ele>143.37</ele>
        <time>2020-06-28T12:50:54Z</time>
      </trkpt>
      <trkpt lat="50.12889" lon="3.68018">
        <ele>143.85</ele>
        <time>2020-06-28T12:50:55Z</time>
      </trkpt>
      <trkpt lat="50.12893" lon="3.6802">
        <ele>143.85</ele>
        <time>2020-06-28T12:50:56Z</time>
      </trkpt>
      <trkpt lat="50.12894" lon="3.68024">
        <ele>144.34</ele>
        <time>2020-06-28T12:50:57Z</time>
      </trkpt>
      <trkpt lat="50.12896" lon="3.68028">
        <ele>144.34</ele>
        <time>2020-06-28T12:50:58Z</time>
      </trkpt>
      <trkpt lat="50.12896" lon="3.68032">
        <ele>144.34</ele>
        <time>2020-06-28T12:50:59Z</time>
      </trkpt>
      <trkpt lat="50.12897" lon="3.68036">
        <ele>144.34</ele>
        <time>2020-06-28T12:51:00Z</time>
      </trkpt>
      <trkpt lat="50.12897" lon="3.68041">
        <ele>144.34</ele>
        <time>2020-06-28T12:51:01Z</time>
      </trkpt>
      <trkpt lat="50.12898" lon="3.68047">
        <ele>144.34</ele>
        <time>2020-06-28T12:51:02Z</time>
      </trkpt>
      <trkpt lat="50.12898" lon="3.68053">
        <ele>144.34</ele>
        <time>2020-06-28T12:51:03Z</time>
      </trkpt>
      <trkpt lat="50.12899" lon="3.68059">
        <ele>144.34</ele>
        <time>2020-06-28T12:51:04Z</time>
      </trkpt>
      <trkpt lat="50.12906" lon="3.68113">
        <ele>144.82</ele>
        <time>2020-06-28T12:51:12Z</time>
      </trkpt>
      <trkpt lat="50.1291" lon="3.68128">
        <ele>144.82</ele>
        <time>2020-06-28T12:51:14Z</time>
      </trkpt>
      <trkpt lat="50.12952" lon="3.68251">
        <ele>145.3</ele>
        <time>2020-06-28T12:51:30Z</time>
      </trkpt>
      <trkpt lat="50.12962" lon="3.68284">
        <ele>145.78</ele>
        <time>2020-06-28T12:51:39Z</time>
      </trkpt>
      <trkpt lat="50.12956" lon="3.68306">
        <ele>145.78</ele>
        <time>2020-06-28T12:51:44Z</time>
      </trkpt>
      <trkpt lat="50.12954" lon="3.68308">
        <ele>145.78</ele>
        <time>2020-06-28T12:51:45Z</time>
      </trkpt>
      <trkpt lat="50.12949" lon="3.68311">
        <ele>145.78</ele>
        <time>2020-06-28T12:51:46Z</time>
      </trkpt>
      <trkpt lat="50.12945" lon="3.68313">
        <ele>145.78</ele>
        <time>2020-06-28T12:51:47Z</time>
      </trkpt>
      <trkpt lat="50.12939" lon="3.68315">
        <ele>145.78</ele>
        <time>2020-06-28T12:51:48Z</time>
      </trkpt>
      <trkpt lat="50.12934" lon="3.68317">
        <ele>146.26</ele>
        <time>2020-06-28T12:51:49Z</time>
      </trkpt>
      <trkpt lat="50.12929" lon="3.68319">
        <ele>146.74</ele>
        <time>2020-06-28T12:51:50Z</time>
      </trkpt>
      <trkpt lat="50.1292" lon="3.68324">
        <ele>147.22</ele>
        <time>2020-06-28T12:51:52Z</time>
      </trkpt>
      <trkpt lat="50.12892" lon="3.68343">
        <ele>148.18</ele>
        <time>2020-06-28T12:51:59Z</time>
      </trkpt>
      <trkpt lat="50.12881" lon="3.68356">
        <ele>148.18</ele>
        <time>2020-06-28T12:52:02Z</time>
      </trkpt>
      <trkpt lat="50.12877" lon="3.68361">
        <ele>148.18</ele>
        <time>2020-06-28T12:52:03Z</time>
      </trkpt>
      <trkpt lat="50.12861" lon="3.68385">
        <ele>146.74</ele>
        <time>2020-06-28T12:52:07Z</time>
      </trkpt>
      <trkpt lat="50.12857" lon="3.68393">
        <ele>146.26</ele>
        <time>2020-06-28T12:52:08Z</time>
      </trkpt>
      <trkpt lat="50.12853" lon="3.68402">
        <ele>145.78</ele>
        <time>2020-06-28T12:52:09Z</time>
      </trkpt>
      <trkpt lat="50.12832" lon="3.68468">
        <ele>142.89</ele>
        <time>2020-06-28T12:52:15Z</time>
      </trkpt>
      <trkpt lat="50.1283" lon="3.6848">
        <ele>141.93</ele>
        <time>2020-06-28T12:52:16Z</time>
      </trkpt>
      <trkpt lat="50.12827" lon="3.68493">
        <ele>141.93</ele>
        <time>2020-06-28T12:52:17Z</time>
      </trkpt>
      <trkpt lat="50.12821" lon="3.68519">
        <ele>140.01</ele>
        <time>2020-06-28T12:52:19Z</time>
      </trkpt>
      <trkpt lat="50.12802" lon="3.68599">
        <ele>137.61</ele>
        <time>2020-06-28T12:52:26Z</time>
      </trkpt>
      <trkpt lat="50.12799" lon="3.68608">
        <ele>137.61</ele>
        <time>2020-06-28T12:52:27Z</time>
      </trkpt>
      <trkpt lat="50.12793" lon="3.68613">
        <ele>137.61</ele>
        <time>2020-06-28T12:52:28Z</time>
      </trkpt>
      <trkpt lat="50.12786" lon="3.68612">
        <ele>136.64</ele>
        <time>2020-06-28T12:52:29Z</time>
      </trkpt>
      <trkpt lat="50.12782" lon="3.68608">
        <ele>137.13</ele>
        <time>2020-06-28T12:52:30Z</time>
      </trkpt>
      <trkpt lat="50.12778" lon="3.686">
        <ele>136.64</ele>
        <time>2020-06-28T12:52:31Z</time>
      </trkpt>
      <trkpt lat="50.12774" lon="3.68592">
        <ele>136.16</ele>
        <time>2020-06-28T12:52:32Z</time>
      </trkpt>
      <trkpt lat="50.12737" lon="3.68521">
        <ele>135.68</ele>
        <time>2020-06-28T12:52:41Z</time>
      </trkpt>
      <trkpt lat="50.12735" lon="3.68512">
        <ele>135.68</ele>
        <time>2020-06-28T12:52:42Z</time>
      </trkpt>
      <trkpt lat="50.12736" lon="3.68501">
        <ele>135.68</ele>
        <time>2020-06-28T12:52:43Z</time>
      </trkpt>
      <trkpt lat="50.12739" lon="3.68494">
        <ele>135.68</ele>
        <time>2020-06-28T12:52:44Z</time>
      </trkpt>
      <trkpt lat="50.12743" lon="3.6849">
        <ele>135.68</ele>
        <time>2020-06-28T12:52:45Z</time>
      </trkpt>
      <trkpt lat="50.12748" lon="3.68486">
        <ele>135.68</ele>
        <time>2020-06-28T12:52:46Z</time>
      </trkpt>
      <trkpt lat="50.12754" lon="3.68482">
        <ele>137.13</ele>
        <time>2020-06-28T12:52:47Z</time>
      </trkpt>
      <trkpt lat="50.12759" lon="3.68478">
        <ele>137.13</ele>
        <time>2020-06-28T12:52:48Z</time>
      </trkpt>
      <trkpt lat="50.12791" lon="3.68453">
        <ele>138.57</ele>
        <time>2020-06-28T12:52:54Z</time>
      </trkpt>
      <trkpt lat="50.12795" lon="3.68446">
        <ele>138.57</ele>
        <time>2020-06-28T12:52:55Z</time>
      </trkpt>
      <trkpt lat="50.12797" lon="3.68435">
        <ele>138.57</ele>
        <time>2020-06-28T12:52:56Z</time>
      </trkpt>
      <trkpt lat="50.12797" lon="3.68428">
        <ele>138.57</ele>
        <time>2020-06-28T12:52:57Z</time>
      </trkpt>
      <trkpt lat="50.12796" lon="3.6842">
        <ele>138.57</ele>
        <time>2020-06-28T12:52:58Z</time>
      </trkpt>
      <trkpt lat="50.12793" lon="3.68412">
        <ele>138.57</ele>
        <time>2020-06-28T12:52:59Z</time>
      </trkpt>
      <trkpt lat="50.1279" lon="3.68403">
        <ele>138.57</ele>
        <time>2020-06-28T12:53:00Z</time>
      </trkpt>
      <trkpt lat="50.12782" lon="3.68379">
        <ele>137.13</ele>
        <time>2020-06-28T12:53:03Z</time>
      </trkpt>
      <trkpt lat="50.12769" lon="3.68344">
        <ele>137.13</ele>
        <time>2020-06-28T12:53:07Z</time>
      </trkpt>
      <trkpt lat="50.12759" lon="3.68317">
        <ele>136.64</ele>
        <time>2020-06-28T12:53:10Z</time>
      </trkpt>
      <trkpt lat="50.12718" lon="3.68196">
        <ele>136.16</ele>
        <time>2020-06-28T12:53:23Z</time>
      </trkpt>
      <trkpt lat="50.12714" lon="3.68188">
        <ele>135.68</ele>
        <time>2020-06-28T12:53:24Z</time>
      </trkpt>
      <trkpt lat="50.1271" lon="3.68179">
        <ele>135.68</ele>
        <time>2020-06-28T12:53:25Z</time>
      </trkpt>
      <trkpt lat="50.12675" lon="3.68109">
        <ele>134.24</ele>
        <time>2020-06-28T12:53:33Z</time>
      </trkpt>
      <trkpt lat="50.12655" lon="3.68065">
        <ele>135.68</ele>
        <time>2020-06-28T12:53:38Z</time>
      </trkpt>
      <trkpt lat="50.12601" lon="3.67957">
        <ele>136.16</ele>
        <time>2020-06-28T12:53:51Z</time>
      </trkpt>
      <trkpt lat="50.12588" lon="3.67932">
        <ele>134.72</ele>
        <time>2020-06-28T12:53:54Z</time>
      </trkpt>
      <trkpt lat="50.12579" lon="3.67917">
        <ele>134.72</ele>
        <time>2020-06-28T12:53:56Z</time>
      </trkpt>
      <trkpt lat="50.12573" lon="3.6791">
        <ele>134.72</ele>
        <time>2020-06-28T12:53:57Z</time>
      </trkpt>
      <trkpt lat="50.12549" lon="3.6789">
        <ele>134.72</ele>
        <time>2020-06-28T12:54:01Z</time>
      </trkpt>
      <trkpt lat="50.12532" lon="3.6788">
        <ele>134.72</ele>
        <time>2020-06-28T12:54:04Z</time>
      </trkpt>
      <trkpt lat="50.12527" lon="3.67875">
        <ele>134.72</ele>
        <time>2020-06-28T12:54:05Z</time>
      </trkpt>
      <trkpt lat="50.12523" lon="3.6787">
        <ele>134.72</ele>
        <time>2020-06-28T12:54:06Z</time>
      </trkpt>
      <trkpt lat="50.1252" lon="3.67864">
        <ele>134.72</ele>
        <time>2020-06-28T12:54:07Z</time>
      </trkpt>
      <trkpt lat="50.12517" lon="3.67858">
        <ele>134.72</ele>
        <time>2020-06-28T12:54:08Z</time>
      </trkpt>
      <trkpt lat="50.12495" lon="3.67834">
        <ele>134.72</ele>
        <time>2020-06-28T12:54:16Z</time>
      </trkpt>
      <trkpt lat="50.1248" lon="3.67814">
        <ele>134.72</ele>
        <time>2020-06-28T12:54:28Z</time>
      </trkpt>
      <trkpt lat="50.1248" lon="3.67814">
        <ele>136.64</ele>
        <time>2020-06-28T12:54:31Z</time>
      </trkpt>
    </trkseg>
  </trk>
</gpx>